ADDS METAR Data INFO
IDs: Format: Raw Decoded Include TAF

Data at: 1112 UTC 13 Dec 2017

KGGG 131053Z AUTO 17004KT 10SM CLR M02/M03 A3011 RMK AO2 SLP199 T10171028
KGGG 130953Z AUTO 17003KT 10SM CLR M01/M03 A3013 RMK AO2 SLP205 T10061033
KGGG 130853Z AUTO 19003KT 10SM CLR M01/M03 A3015 RMK AO2 SLP214 T10111028 56012

KGGG 130522Z 1306/1406 00000KT P6SM SKC
  FM131500 21010KT P6SM SKC
  FM131700 22015G22KT P6SM SKC
  FM140000 21008KT P6SM SKC


KTYR 131053Z AUTO 18005KT 10SM CLR M01/M03 A3010 RMK AO2 SLP194 T10061028
KTYR 130953Z AUTO 17005KT 10SM CLR M01/M02 A3012 RMK AO2 SLP198 T10061022
KTYR 130853Z AUTO 18005KT 10SM CLR M01/M03 A3015 RMK AO2 SLP210 T10111028 58013

KTYR 130522Z 1306/1406 VRB04KT P6SM SKC
  FM131500 21010KT P6SM SKC
  FM131700 21015G21KT P6SM SKC
  FM140000 20009KT P6SM SKC